createdAt,value
2019-03-18T00:00:58.936Z,3.35
2019-03-18T00:06:05.723Z,3.43
2019-03-18T00:11:11.966Z,3.40
2019-03-18T00:16:18.392Z,3.62
2019-03-18T00:21:25.733Z,2.97
2019-03-18T00:26:32.326Z,3.23
2019-03-18T00:31:38.612Z,3.10
2019-03-18T00:36:44.908Z,3.50
2019-03-18T00:41:51.332Z,3.70
2019-03-18T00:46:58.710Z,3.90
2019-03-18T00:52:05.783Z,3.50
2019-03-18T00:57:12.106Z,4.07
2019-03-18T01:02:20.239Z,3.30
2019-03-18T01:07:26.670Z,3.03
2019-03-18T01:12:33.074Z,3.70
2019-03-18T01:17:41.010Z,3.70
2019-03-18T01:22:47.426Z,3.97
2019-03-18T01:27:53.765Z,3.10
2019-03-18T01:33:00.238Z,3.53
2019-03-18T01:38:06.884Z,3.40
2019-03-18T01:43:13.254Z,3.93
2019-03-18T01:48:19.470Z,3.37
2019-03-18T01:53:27.471Z,3.20
2019-03-18T01:58:36.623Z,3.20
2019-03-18T02:03:42.831Z,3.30
2019-03-18T02:08:49.254Z,3.50
2019-03-18T02:13:56.628Z,3.40
2019-03-18T02:19:03.983Z,3.57
2019-03-18T02:24:11.317Z,3.17
2019-03-18T02:29:17.628Z,4.10
2019-03-18T02:34:25.249Z,3.53
2019-03-18T02:39:31.971Z,3.80
2019-03-18T02:44:38.391Z,3.30
2019-03-18T02:49:44.726Z,3.63
2019-03-18T02:54:51.075Z,4.50
2019-03-18T02:59:57.359Z,5.27
2019-03-18T03:05:03.709Z,5.30
2019-03-18T03:10:10.317Z,5.43
2019-03-18T03:15:17.795Z,5.80
2019-03-18T03:20:24.122Z,5.53
2019-03-18T03:25:33.067Z,6.67
2019-03-18T03:30:39.380Z,6.47
2019-03-18T03:35:45.699Z,6.43
2019-03-18T03:40:52.116Z,6.40
2019-03-18T03:45:58.406Z,7.63
2019-03-18T03:51:05.659Z,7.40
2019-03-18T03:56:11.987Z,7.80
2019-03-18T04:01:18.200Z,7.73
2019-03-18T04:06:24.589Z,7.40
2019-03-18T04:11:30.941Z,7.07
2019-03-18T04:16:37.246Z,7.47
2019-03-18T04:21:43.468Z,7.78
2019-03-18T04:26:49.737Z,7.90
2019-03-18T04:31:57.101Z,7.63
2019-03-18T04:37:03.339Z,7.50
2019-03-18T04:42:09.697Z,7.67
2019-03-18T04:47:16.042Z,7.20
2019-03-18T04:52:23.552Z,8.20
2019-03-18T04:57:29.882Z,9.23
2019-03-18T05:02:36.163Z,8.50
2019-03-18T05:07:42.522Z,8.60
2019-03-18T05:12:48.789Z,8.37
2019-03-18T05:17:55.099Z,8.97
2019-03-18T05:23:01.322Z,9.30
2019-03-18T05:28:07.761Z,9.15
2019-03-18T05:33:14.018Z,9.77
2019-03-18T05:38:20.241Z,10.13
2019-03-18T05:43:26.466Z,10.50
2019-03-18T05:48:32.718Z,11.10
2019-03-18T05:53:39.083Z,10.90
2019-03-18T05:58:46.639Z,11.18
2019-03-18T06:03:53.003Z,11.53
2019-03-18T06:08:59.465Z,11.07
2019-03-18T06:14:05.767Z,10.90
2019-03-18T06:19:12.001Z,10.93
2019-03-18T06:24:18.210Z,10.63
2019-03-18T06:29:27.304Z,11.00
2019-03-18T06:34:32.496Z,10.73
2019-03-18T06:39:38.797Z,11.13
2019-03-18T06:44:45.091Z,11.03
2019-03-18T06:49:51.507Z,11.03
2019-03-18T06:54:57.759Z,10.87
2019-03-18T07:00:06.872Z,11.40
2019-03-18T07:05:13.334Z,12.10
2019-03-18T07:10:19.640Z,11.63
2019-03-18T07:15:26.048Z,10.78
2019-03-18T07:20:32.390Z,11.57
2019-03-18T07:25:38.659Z,10.60
2019-03-18T07:30:44.910Z,9.83
2019-03-18T07:35:51.191Z,10.47
2019-03-18T07:40:57.625Z,9.35
2019-03-18T07:46:03.855Z,9.63
2019-03-18T07:51:10.304Z,8.20
2019-03-18T07:56:16.875Z,8.53
2019-03-18T08:01:23.399Z,6.73
2019-03-18T08:06:29.847Z,6.27
2019-03-18T08:11:36.417Z,6.43
2019-03-18T08:16:42.878Z,5.90
2019-03-18T08:21:51.197Z,5.27
2019-03-18T08:26:57.575Z,5.53
2019-03-18T08:32:03.965Z,5.63
2019-03-18T08:37:10.210Z,5.28
2019-03-18T08:42:16.411Z,4.83
2019-03-18T08:47:22.799Z,4.80
2019-03-18T08:52:29.012Z,4.83
2019-03-18T08:57:35.294Z,4.40
2019-03-18T09:02:41.532Z,4.50
2019-03-18T09:07:47.789Z,5.87
2019-03-18T09:12:54.037Z,4.93
2019-03-18T09:18:00.523Z,6.20
2019-03-18T09:23:06.818Z,5.40
2019-03-18T09:28:13.154Z,5.63
2019-03-18T09:33:19.829Z,5.30
2019-03-18T09:38:26.173Z,5.57
2019-03-18T09:43:32.596Z,5.20
2019-03-18T09:48:38.861Z,4.73
2019-03-18T09:53:45.200Z,5.80
2019-03-18T09:58:52.018Z,5.60
2019-03-18T10:03:58.383Z,5.50
2019-03-18T10:09:08.842Z,5.45
2019-03-18T10:14:15.154Z,5.60
2019-03-18T10:19:32.700Z,4.73
2019-03-18T10:24:29.991Z,5.27
2019-03-18T10:29:36.300Z,4.40
2019-03-18T10:34:42.694Z,3.63
2019-03-18T10:39:52.633Z,3.62
2019-03-18T10:45:10.736Z,3.37
2019-03-18T10:50:17.414Z,3.80
2019-03-18T10:55:23.725Z,2.87
2019-03-18T11:00:30.050Z,2.70
2019-03-18T11:05:39.330Z,2.20
2019-03-18T11:10:45.639Z,3.10
2019-03-18T11:15:51.994Z,2.67
2019-03-18T11:20:58.287Z,2.35
2019-03-18T11:26:05.441Z,2.87
2019-03-18T11:31:11.675Z,2.73
2019-03-18T11:36:18.013Z,2.20
2019-03-18T11:41:24.456Z,2.00
2019-03-18T11:46:32.113Z,2.20
2019-03-18T11:51:38.611Z,1.60
2019-03-18T11:56:44.945Z,1.90
2019-03-18T12:01:51.578Z,3.10
2019-03-18T12:06:59.320Z,2.00
2019-03-18T12:12:05.632Z,2.52
2019-03-18T12:17:11.953Z,2.20
2019-03-18T12:22:18.173Z,2.37
2019-03-18T12:27:24.611Z,1.80
2019-03-18T12:32:30.979Z,2.40
2019-03-18T12:37:37.336Z,2.50
2019-03-18T12:42:44.131Z,2.75
2019-03-18T12:47:51.759Z,2.30
2019-03-18T12:52:58.354Z,2.70
2019-03-18T12:58:05.730Z,2.17
2019-03-18T13:03:12.140Z,2.40
2019-03-18T13:08:18.557Z,2.33
2019-03-18T13:13:24.855Z,2.50
2019-03-18T13:18:31.097Z,2.43
2019-03-18T13:23:37.431Z,2.67
2019-03-18T13:28:43.725Z,1.92
2019-03-18T13:33:51.124Z,2.50
2019-03-18T13:38:57.653Z,2.67
2019-03-18T13:44:05.160Z,2.77
2019-03-18T13:49:11.423Z,2.50
2019-03-18T13:54:17.775Z,2.45
2019-03-18T13:59:24.587Z,2.13
2019-03-18T14:04:31.027Z,2.30
2019-03-18T14:09:38.458Z,2.60
2019-03-18T14:14:44.938Z,2.90
2019-03-18T14:19:51.469Z,2.20
2019-03-18T14:24:59.043Z,2.80
2019-03-18T14:30:07.784Z,2.47
2019-03-18T14:35:14.373Z,6.43
2019-03-18T14:40:20.782Z,4.30
2019-03-18T14:45:27.118Z,3.60
2019-03-18T14:50:33.752Z,2.25
2019-03-18T14:55:40.427Z,2.87
2019-03-18T15:00:47.847Z,2.45
2019-03-18T15:05:56.974Z,2.77
2019-03-18T15:11:03.523Z,2.80
2019-03-18T15:16:09.947Z,2.42
2019-03-18T15:21:16.372Z,2.07
2019-03-18T15:26:22.699Z,2.40
2019-03-18T15:31:29.027Z,2.53
2019-03-18T15:36:35.278Z,2.00
2019-03-18T15:41:41.537Z,2.08
2019-03-18T15:46:47.982Z,2.43
2019-03-18T15:51:54.261Z,2.57
2019-03-18T15:57:00.786Z,2.30
2019-03-18T16:02:08.358Z,2.77
2019-03-18T16:07:14.652Z,2.57
2019-03-18T16:12:20.949Z,2.93
2019-03-18T16:17:27.913Z,3.00
2019-03-18T16:22:34.130Z,2.97
2019-03-18T16:27:40.385Z,3.07
2019-03-18T16:32:46.987Z,2.80
2019-03-18T16:37:53.530Z,3.47
2019-03-18T16:42:59.965Z,2.92
2019-03-18T16:48:06.341Z,2.33
2019-03-18T16:53:12.622Z,2.08
2019-03-18T16:58:18.896Z,1.90
2019-03-18T17:03:25.212Z,2.73
2019-03-18T17:08:31.538Z,2.67
2019-03-18T17:13:38.052Z,2.60
2019-03-18T17:18:44.594Z,2.67
2019-03-18T17:23:51.096Z,2.07
2019-03-18T17:28:58.566Z,3.27
2019-03-18T17:34:05.997Z,2.62
2019-03-18T17:39:14.589Z,2.77
2019-03-18T17:44:20.511Z,2.65
2019-03-18T17:49:26.955Z,2.43
2019-03-18T17:54:33.292Z,2.30
2019-03-18T17:59:40.660Z,2.08
2019-03-18T18:04:47.121Z,2.27
2019-03-18T18:09:53.381Z,2.00
2019-03-18T18:14:59.703Z,2.77
2019-03-18T18:26:11.030Z,2.87
2019-03-18T18:37:35.324Z,2.50
2019-03-18T18:42:41.660Z,2.65
2019-03-18T18:47:47.975Z,2.80
2019-03-18T18:52:54.278Z,2.87
2019-03-18T18:58:00.611Z,2.70
2019-03-18T19:03:07.002Z,2.77
2019-03-18T19:08:16.328Z,2.70
2019-03-18T19:13:23.083Z,2.83
2019-03-18T19:18:37.748Z,2.83
2019-03-18T19:23:41.145Z,2.97
2019-03-18T19:28:47.688Z,3.50
2019-03-18T19:33:55.037Z,2.73
2019-03-18T19:39:01.385Z,3.40
2019-03-18T19:44:09.320Z,6.43
2019-03-18T19:49:16.014Z,6.70
2019-03-18T19:54:22.496Z,4.07
2019-03-18T19:59:28.997Z,5.47
2019-03-18T20:04:35.318Z,5.40
2019-03-18T20:09:43.377Z,4.07
2019-03-18T20:14:49.814Z,4.10
2019-03-18T20:19:56.115Z,3.97
2019-03-18T20:25:02.410Z,3.90
2019-03-18T20:30:11.093Z,3.50
2019-03-18T20:35:19.421Z,3.80
2019-03-18T20:40:25.843Z,4.75
2019-03-18T20:45:32.218Z,4.37
2019-03-18T20:50:38.746Z,4.27
2019-03-18T20:55:45.267Z,5.20
2019-03-18T21:00:53.194Z,5.70
2019-03-18T21:06:00.924Z,5.10
2019-03-18T21:11:07.463Z,6.10
2019-03-18T21:16:13.822Z,5.30
2019-03-18T21:21:20.129Z,6.07
2019-03-18T21:26:26.669Z,7.10
2019-03-18T21:31:33.091Z,6.00
2019-03-18T21:36:39.388Z,5.85
2019-03-18T21:41:46.270Z,5.57
2019-03-18T21:46:52.748Z,6.37
2019-03-18T21:51:59.212Z,5.70
2019-03-18T21:57:07.014Z,5.30
2019-03-18T22:07:49.775Z,5.35
2019-03-18T22:12:56.295Z,6.13
2019-03-18T22:18:02.581Z,6.93
2019-03-18T22:23:10.923Z,8.07
2019-03-18T22:28:18.303Z,6.55
2019-03-18T22:33:24.611Z,5.67
2019-03-18T22:38:30.884Z,6.10
2019-03-18T22:43:37.249Z,6.70
2019-03-18T22:48:45.480Z,6.37
2019-03-18T22:53:52.061Z,6.07
2019-03-18T22:58:58.596Z,6.00
2019-03-18T23:04:06.099Z,5.92
2019-03-18T23:09:12.717Z,5.83
2019-03-18T23:14:19.011Z,5.70
2019-03-18T23:19:25.364Z,6.03
2019-03-18T23:24:31.791Z,6.00
2019-03-18T23:29:38.391Z,5.93
2019-03-18T23:34:44.802Z,6.45
2019-03-18T23:39:51.441Z,6.93
2019-03-18T23:44:58.737Z,7.28
2019-03-18T23:50:06.040Z,5.97
2019-03-18T23:55:18.892Z,6.37
